Time;durP1;ratioP1;P1;durP2;ratioP2;P2;SDS_P1;SDS_P2;PMS_P1;PMS_P2;Temp;Humidity;BMP_temperature;BMP_pressure;BME280_temperature;BME280_humidity;BME280_pressure;Samples;Min_cycle;Max_cycle;Signal;HPM_P1;HPM_P2
2023/08/18 00:00:13;;;;;;;1027.78;936.03;;;;;;;;;;5081927;28;20052;-66
2023/08/18 00:02:41;;;;;;;1012.15;923.95;;;;;;;;;;5080599;28;20033;-65
2023/08/18 00:05:08;;;;;;;1009.53;921.75;;;;;;;;;;5082658;28;20044;-67
2023/08/18 00:07:35;;;;;;;1013.85;922.97;;;;;;;;;;5080194;28;20041;-64
2023/08/18 00:10:03;;;;;;;1016.75;927.35;;;;;;;;;;5078464;28;20075;-64
2023/08/18 00:12:29;;;;;;;1006.05;916.90;;;;;;;;;;5081546;28;20037;-64
2023/08/18 00:14:56;;;;;;;1010.90;922.90;;;;;;;;;;5081033;28;20036;-65
2023/08/18 00:17:22;;;;;;;999.03;911.22;;;;;;;;;;5078217;28;20124;-67
2023/08/18 00:19:49;;;;;;;1009.00;919.38;;;;;;;;;;5078589;28;20157;-63
2023/08/18 00:22:16;;;;;;;1018.20;929.00;;;;;;;;;;5078435;28;20052;-65
2023/08/18 00:24:42;;;;;;;1017.90;929.60;;;;;;;;;;5077742;28;20048;-64
2023/08/18 00:27:09;;;;;;;1013.03;923.80;;;;;;;;;;5075308;28;20098;-66
2023/08/18 00:29:36;;;;;;;999.65;912.17;;;;;;;;;;5078091;28;20044;-68
2023/08/18 00:32:03;;;;;;;1009.85;921.80;;;;;;;;;;5080616;28;20049;-64
2023/08/18 00:34:29;;;;;;;1003.95;916.28;;;;;;;;;;5079142;28;20444;-66
2023/08/18 00:36:56;;;;;;;1004.80;918.28;;;;;;;;;;5075192;28;20059;-66
2023/08/18 00:39:23;;;;;;;1009.90;920.80;;;;;;;;;;5077626;28;20092;-66
2023/08/18 00:41:49;;;;;;;1008.10;920.38;;;;;;;;;;5081532;28;20480;-65
2023/08/18 00:44:17;;;;;;;1008.90;920.83;;;;;;;;;;5076110;28;21475;-66
2023/08/18 00:46:44;;;;;;;1008.17;917.90;;;;;;;;;;5078259;28;20134;-65
2023/08/18 00:49:12;;;;;;;1007.20;919.92;;;;;;;;;;5079426;28;20075;-65
2023/08/18 00:51:40;;;;;;;1004.20;916.55;;;;;;;;;;5054634;28;20041;-65
2023/08/18 00:54:07;;;;;;;1005.92;916.83;;;;;;;;;;5078406;28;20389;-65
2023/08/18 00:56:34;;;;;;;999.03;913.20;;;;;;;;;;5075929;28;20048;-64
2023/08/18 00:59:01;;;;;;;999.50;911.50;;;;;;;;;;5078858;28;20540;-64
2023/08/18 01:01:28;;;;;;;1001.75;914.38;;;;;;;;;;5081416;28;20036;-63
2023/08/18 01:03:55;;;;;;;1005.22;917.90;;;;;;;;;;5075400;28;20153;-65
2023/08/18 01:06:24;;;;;;;1006.85;917.65;;;;;;;;;;5078578;28;20135;-64
2023/08/18 01:08:51;;;;;;;1003.45;915.55;;;;;;;;;;5079517;28;20101;-63
2023/08/18 01:11:21;;;;;;;1004.22;916.53;;;;;;;;;;5076160;28;20451;-63
2023/08/18 01:14:17;;;;;;;1020.53;928.75;;;;;;;;;;5079943;28;20076;-64
2023/08/18 01:16:48;;;;;;;1003.53;912.95;;;;;;;;;;5036019;28;20498;-64
2023/08/18 01:19:16;;;;;;;998.63;910.45;;;;;;;;;;5020780;28;20477;-63
2023/08/18 01:21:43;;;;;;;998.33;910.03;;;;;;;;;;5018555;28;20073;-64
2023/08/18 01:24:10;;;;;;;992.72;903.47;;;;;;;;;;5036791;28;20049;-64
2023/08/18 01:26:37;;;;;;;993.97;907.22;;;;;;;;;;5035875;28;20391;-63
2023/08/18 01:29:04;;;;;;;986.20;899.15;;;;;;;;;;5016409;28;20051;-64
2023/08/18 01:31:32;;;;;;;994.05;906.75;;;;;;;;;;5020670;28;20052;-64
2023/08/18 01:34:05;;;;;;;968.50;883.10;;;;;;;;;;5033483;28;20661;-64
2023/08/18 01:36:38;;;;;;;986.63;897.83;;;;;;;;;;5033067;28;20056;-63
2023/08/18 01:39:06;;;;;;;976.42;888.30;;;;;;;;;;5037205;28;20041;-64
2023/08/18 01:41:33;;;;;;;975.20;889.03;;;;;;;;;;5030861;28;20469;-63
2023/08/18 01:44:05;;;;;;;974.08;887.38;;;;;;;;;;5019434;28;20045;-63
2023/08/18 01:46:31;;;;;;;984.78;897.47;;;;;;;;;;5036513;28;20072;-65
2023/08/18 01:48:58;;;;;;;978.20;891.03;;;;;;;;;;5034160;28;20061;-63
2023/08/18 01:51:25;;;;;;;974.05;886.85;;;;;;;;;;5018516;28;20044;-63
2023/08/18 01:53:52;;;;;;;970.38;883.60;;;;;;;;;;5061624;28;20486;-63
2023/08/18 01:56:18;;;;;;;977.33;889.58;;;;;;;;;;5076676;28;20123;-64
2023/08/18 01:58:45;;;;;;;967.40;878.40;;;;;;;;;;5077477;28;20044;-64
2023/08/18 02:01:12;;;;;;;1999.90;999.90;;;;;;;;;;5040390;22;20059;-82
2023/08/18 02:03:38;;;;;;;1896.65;999.90;;;;;;;;;;4910346;28;20041;-82
2023/08/18 02:06:05;;;;;;;1971.18;999.90;;;;;;;;;;4930388;28;20139;-82
2023/08/18 02:08:33;;;;;;;1925.90;999.90;;;;;;;;;;4924195;28;20037;-83
2023/08/18 02:11:01;;;;;;;1855.88;999.90;;;;;;;;;;4931874;28;20229;-85
2023/08/18 02:13:29;;;;;;;1858.68;999.90;;;;;;;;;;4902997;28;20103;-84
2023/08/18 02:15:56;;;;;;;1915.50;999.90;;;;;;;;;;4932126;28;20313;-84
2023/08/18 02:18:24;;;;;;;1999.90;999.90;;;;;;;;;;4936411;28;20053;-82
2023/08/18 02:21:05;;;;;;;1859.90;999.90;;;;;;;;;;4930998;28;20048;-82
2023/08/18 02:23:31;;;;;;;1854.72;999.90;;;;;;;;;;4928439;28;21095;-82
2023/08/18 02:26:02;;;;;;;1990.60;999.90;;;;;;;;;;4935400;28;20033;-84
2023/08/18 02:28:31;;;;;;;1999.90;999.90;;;;;;;;;;4922729;28;20052;-84
2023/08/18 02:31:02;;;;;;;1828.32;999.90;;;;;;;;;;4932226;28;20025;-84
2023/08/18 02:33:29;;;;;;;1999.90;999.90;;;;;;;;;;4928654;28;20830;-85
2023/08/18 02:35:56;;;;;;;1999.90;999.90;;;;;;;;;;4924047;28;20084;-85
2023/08/18 02:38:22;;;;;;;1858.03;999.90;;;;;;;;;;4924413;28;20168;-85
2023/08/18 02:40:49;;;;;;;1828.47;999.90;;;;;;;;;;4922335;28;20934;-85
2023/08/18 02:43:16;;;;;;;1975.22;999.90;;;;;;;;;;4928028;28;20033;-85
2023/08/18 02:45:42;;;;;;;1901.47;999.90;;;;;;;;;;4928578;28;20040;-85
2023/08/18 02:48:13;;;;;;;1999.90;999.90;;;;;;;;;;4924808;28;20060;-85
2023/08/18 02:50:40;;;;;;;1837.28;999.90;;;;;;;;;;4909399;28;20217;-85
2023/08/18 02:53:07;;;;;;;1999.90;999.90;;;;;;;;;;4919240;28;21061;-84
2023/08/18 02:55:34;;;;;;;1822.72;999.90;;;;;;;;;;4915070;28;20051;-85
2023/08/18 02:58:01;;;;;;;1883.70;999.90;;;;;;;;;;4911523;28;20037;-84
2023/08/18 03:00:28;;;;;;;1999.90;999.90;;;;;;;;;;4905399;28;21055;-84
2023/08/18 03:02:56;;;;;;;1834.97;999.90;;;;;;;;;;4911063;28;20052;-86
2023/08/18 03:05:23;;;;;;;1823.30;999.90;;;;;;;;;;4915622;28;20044;-85
2023/08/18 03:07:49;;;;;;;1846.97;999.90;;;;;;;;;;4915926;28;20064;-85
2023/08/18 03:10:16;;;;;;;1864.88;999.90;;;;;;;;;;4920757;28;20044;-85
2023/08/18 03:12:43;;;;;;;1937.28;999.90;;;;;;;;;;4926366;28;20116;-85
2023/08/18 03:15:09;;;;;;;1999.90;999.90;;;;;;;;;;4899260;28;20956;-85
2023/08/18 03:17:36;;;;;;;1818.55;999.90;;;;;;;;;;4907203;28;20080;-85
2023/08/18 03:20:04;;;;;;;1819.30;999.90;;;;;;;;;;4912081;28;20049;-85
2023/08/18 03:22:34;;;;;;;1964.55;999.90;;;;;;;;;;4899991;28;20148;-85
2023/08/18 03:25:01;;;;;;;1849.97;999.90;;;;;;;;;;4912839;28;20048;-85
2023/08/18 03:27:29;;;;;;;1993.85;999.90;;;;;;;;;;4919512;28;20129;-85
2023/08/18 03:29:57;;;;;;;1999.90;999.90;;;;;;;;;;4908971;28;20056;-85
2023/08/18 03:32:25;;;;;;;1999.90;999.90;;;;;;;;;;4911599;28;20156;-85
2023/08/18 03:34:53;;;;;;;1832.35;999.90;;;;;;;;;;4924627;28;20048;-85
2023/08/18 03:37:21;;;;;;;1947.32;999.90;;;;;;;;;;4907367;28;20097;-85
2023/08/18 03:39:48;;;;;;;1878.65;999.90;;;;;;;;;;4910778;28;20045;-85
2023/08/18 03:42:15;;;;;;;1999.90;999.90;;;;;;;;;;4938922;28;20040;-85
2023/08/18 03:44:42;;;;;;;1818.57;999.90;;;;;;;;;;4902904;28;20041;-85
2023/08/18 03:47:08;;;;;;;1999.90;999.90;;;;;;;;;;4930023;28;21123;-85
2023/08/18 03:49:35;;;;;;;1798.30;999.90;;;;;;;;;;4924083;28;20040;-85
2023/08/18 03:52:02;;;;;;;1832.05;999.90;;;;;;;;;;4905992;28;20528;-85
2023/08/18 03:54:30;;;;;;;1999.90;999.90;;;;;;;;;;4922343;28;20103;-85
2023/08/18 03:56:56;;;;;;;1793.95;999.90;;;;;;;;;;4923269;28;20055;-85
2023/08/18 03:59:23;;;;;;;1777.50;999.90;;;;;;;;;;4893784;28;21100;-85
2023/08/18 04:04:19;;;;;;;955.15;867.00;;;;;;;;;;5093560;27;20386;-61
2023/08/18 04:06:46;;;;;;;959.88;871.85;;;;;;;;;;5088360;28;20429;-60
2023/08/18 04:09:15;;;;;;;977.13;879.38;;;;;;;;;;5078969;28;20492;-61
2023/08/18 04:11:43;;;;;;;957.05;867.95;;;;;;;;;;5088782;28;20131;-61
2023/08/18 04:14:09;;;;;;;952.15;864.78;;;;;;;;;;5087707;28;20068;-62
2023/08/18 04:16:37;;;;;;;953.35;863.70;;;;;;;;;;5069654;28;20066;-61
2023/08/18 04:19:04;;;;;;;961.38;871.85;;;;;;;;;;5088007;28;20098;-62
2023/08/18 04:21:32;;;;;;;958.92;870.60;;;;;;;;;;5120137;27;20044;-60
2023/08/18 04:24:00;;;;;;;965.80;876.58;;;;;;;;;;5104733;28;20055;-57
2023/08/18 04:26:27;;;;;;;966.33;874.08;;;;;;;;;;5086354;28;20051;-58
2023/08/18 04:28:53;;;;;;;976.97;888.95;;;;;;;;;;5085901;28;20044;-58
2023/08/18 04:31:21;;;;;;;968.28;878.72;;;;;;;;;;5087037;28;20080;-58
2023/08/18 04:33:52;;;;;;;986.72;895.55;;;;;;;;;;5086197;28;20499;-58
2023/08/18 04:36:18;;;;;;;1001.63;903.40;;;;;;;;;;5086377;28;20044;-59
2023/08/18 04:38:45;;;;;;;981.83;892.60;;;;;;;;;;5088584;28;20145;-61
2023/08/18 04:41:22;;;;;;;981.30;892.15;;;;;;;;;;5120136;27;20036;-61
2023/08/18 04:43:50;;;;;;;982.17;891.78;;;;;;;;;;5083644;28;20041;-61
2023/08/18 04:46:25;;;;;;;983.05;892.65;;;;;;;;;;5120160;27;20119;-62
2023/08/18 04:48:57;;;;;;;974.63;885.95;;;;;;;;;;5105694;28;20052;-61
2023/08/18 04:51:24;;;;;;;988.38;894.28;;;;;;;;;;5086143;28;20048;-61
2023/08/18 04:53:50;;;;;;;981.67;889.55;;;;;;;;;;5088022;28;20050;-61
2023/08/18 04:56:17;;;;;;;990.15;901.10;;;;;;;;;;5086868;28;20044;-60
2023/08/18 05:01:45;;;;;;;1877.07;999.90;;;;;;;;;;4958990;28;20088;-85
2023/08/18 05:04:13;;;;;;;1557.70;999.90;;;;;;;;;;4954103;28;20053;-85
2023/08/18 05:06:39;;;;;;;1569.28;999.90;;;;;;;;;;4947985;28;20059;-85
2023/08/18 05:09:06;;;;;;;1999.90;999.90;;;;;;;;;;4936467;28;20364;-88
2023/08/18 05:11:33;;;;;;;1770.45;999.90;;;;;;;;;;4921952;28;20079;-85
2023/08/18 05:14:00;;;;;;;1748.72;999.90;;;;;;;;;;4928586;28;21136;-86
2023/08/18 05:16:26;;;;;;;1790.22;999.90;;;;;;;;;;4902143;28;20048;-85
2023/08/18 05:34:05;;;;;;;1433.43;999.90;;;;;;;;;;4833674;29;20063;-89
2023/08/18 05:48:06;;;;;;;1590.15;999.90;;;;;;;;;;4839007;29;20038;-89
2023/08/18 05:50:36;;;;;;;1219.10;999.90;;;;;;;;;;4822761;29;20078;-88
2023/08/18 05:53:23;;;;;;;1637.13;999.90;;;;;;;;;;4815434;29;20542;-89
2023/08/18 06:00:27;;;;;;;1956.65;999.90;;;;;;;;;;4802425;28;24000;-87
2023/08/18 06:07:26;;;;;;;1603.82;999.90;;;;;;;;;;4875654;28;20283;-89
2023/08/18 06:10:47;;;;;;;1565.95;999.90;;;;;;;;;;4869226;28;20431;-89
2023/08/18 06:17:15;;;;;;;1810.97;999.90;;;;;;;;;;4861252;28;20033;-88
2023/08/18 06:19:44;;;;;;;1793.38;999.90;;;;;;;;;;4887133;28;20920;-88
2023/08/18 06:22:14;;;;;;;1726.68;999.90;;;;;;;;;;4868642;28;20107;-88
2023/08/18 06:24:56;;;;;;;1746.78;999.90;;;;;;;;;;4890746;28;20234;-88
2023/08/18 06:27:30;;;;;;;1726.13;999.90;;;;;;;;;;4882358;28;20053;-88
2023/08/18 06:30:03;;;;;;;1754.00;999.90;;;;;;;;;;4898187;28;20184;-88
2023/08/18 06:32:41;;;;;;;1843.60;999.90;;;;;;;;;;4890318;28;20983;-88
2023/08/18 06:35:13;;;;;;;1862.47;999.90;;;;;;;;;;4890190;28;20050;-87
2023/08/18 06:37:41;;;;;;;1801.72;999.90;;;;;;;;;;4889003;28;20042;-87
2023/08/18 06:40:20;;;;;;;1758.72;999.90;;;;;;;;;;4890635;28;21021;-89
2023/08/18 06:42:52;;;;;;;1330.65;999.90;;;;;;;;;;4939282;28;20812;-87
2023/08/18 06:46:19;;;;;;;1629.97;999.90;;;;;;;;;;4943300;28;20076;-89
2023/08/18 06:48:52;;;;;;;1512.80;999.90;;;;;;;;;;4961441;28;21025;-89
2023/08/18 06:51:39;;;;;;;1713.07;999.90;;;;;;;;;;4939372;28;20146;-89
2023/08/18 06:54:06;;;;;;;1563.28;999.90;;;;;;;;;;4938413;28;21039;-89
2023/08/18 06:56:36;;;;;;;1858.80;999.90;;;;;;;;;;4930226;28;20143;-89
2023/08/18 06:59:16;;;;;;;1555.38;999.90;;;;;;;;;;4922180;28;20811;-88
2023/08/18 07:01:43;;;;;;;1496.22;999.90;;;;;;;;;;4924379;28;20060;-90
2023/08/18 07:44:29;;;;;;;1970.60;999.90;;;;;;;;;;4635928;30;20035;-88
2023/08/18 07:47:10;;;;;;;1974.47;999.90;;;;;;;;;;4629705;30;20056;-87
2023/08/18 07:49:52;;;;;;;1999.90;999.90;;;;;;;;;;4615733;30;20063;-88
2023/08/18 07:52:34;;;;;;;1509.05;999.90;;;;;;;;;;4620626;30;20229;-90
2023/08/18 07:55:16;;;;;;;1999.90;999.90;;;;;;;;;;4615520;29;20094;-87
2023/08/18 07:57:46;;;;;;;1838.75;999.90;;;;;;;;;;4742809;29;20044;-87
2023/08/18 08:00:16;;;;;;;1718.68;999.90;;;;;;;;;;4793830;29;20055;-89
2023/08/18 08:02:44;;;;;;;1635.68;999.90;;;;;;;;;;4799206;29;20602;-89
2023/08/18 08:05:30;;;;;;;1531.05;999.90;;;;;;;;;;4793271;29;21003;-89
2023/08/18 08:08:40;;;;;;;1765.88;999.90;;;;;;;;;;4811563;29;20176;-88
2023/08/18 08:27:02;;;;;;;1819.90;999.90;;;;;;;;;;4777992;29;20035;-91
2023/08/18 08:29:44;;;;;;;1993.53;999.90;;;;;;;;;;4793861;29;20073;-90
2023/08/18 08:35:02;;;;;;;1563.57;999.90;;;;;;;;;;4755032;29;20053;-90
2023/08/18 08:37:47;;;;;;;1357.82;999.90;;;;;;;;;;4779973;29;20068;-91
2023/08/18 08:40:59;;;;;;;1585.97;999.90;;;;;;;;;;4759251;29;20100;-90
2023/08/18 08:43:30;;;;;;;1628.82;999.90;;;;;;;;;;4801783;29;20044;-90
2023/08/18 08:46:16;;;;;;;1613.32;999.90;;;;;;;;;;4818820;29;20051;-91
2023/08/18 08:49:03;;;;;;;1652.85;999.90;;;;;;;;;;4871873;28;20601;-90
2023/08/18 08:51:40;;;;;;;1657.30;999.90;;;;;;;;;;4936124;28;20045;-90
2023/08/18 08:54:38;;;;;;;1577.00;999.90;;;;;;;;;;4945658;28;20115;-90
2023/08/18 08:57:18;;;;;;;1668.85;999.90;;;;;;;;;;4922332;28;20037;-90
2023/08/18 09:03:40;;;;;;;1655.50;999.90;;;;;;;;;;4982351;28;20110;-91
2023/08/18 09:06:14;;;;;;;1819.10;999.90;;;;;;;;;;4926977;28;20076;-90
2023/08/18 09:08:46;;;;;;;1745.43;999.90;;;;;;;;;;4921429;28;20122;-90
2023/08/18 11:25:14;;;;;;;;;;;;;;;;;;;;;
2023/08/18 11:29:07;;;;;;;;;;;;;;;;;;;;;
2023/08/18 11:39:52;;;;;;;1817.78;999.90;;;;;;;;;;4774645;29;20241;-90
2023/08/18 11:46:50;;;;;;;;;;;;;;;;;;;;;
2023/08/18 11:52:54;;;;;;;1801.20;999.90;;;;;;;;;;4670388;29;20150;-90
2023/08/18 11:56:10;;;;;;;1639.75;999.90;;;;;;;;;;4661025;30;20031;-90
2023/08/18 12:55:21;;;;;;;1272.78;999.90;;;;;;;;;;4900403;28;20217;-91
2023/08/18 12:59:04;;;;;;;;;;;;;;;;;;;;;
2023/08/18 13:02:10;;;;;;;1256.28;999.90;;;;;;;;;;4833211;29;20051;-91
2023/08/18 13:06:04;;;;;;;;;;;;;;;;;;;;;
2023/08/18 13:09:13;;;;;;;1196.68;999.90;;;;;;;;;;4841762;29;20056;-90
2023/08/18 13:12:53;;;;;;;;;;;;;;;;;;;;;
2023/08/18 13:16:13;;;;;;;1260.88;999.90;;;;;;;;;;4827893;29;20898;-90
2023/08/18 13:35:24;;;;;;;1193.55;999.90;;;;;;;;;;4765903;29;20045;-90
2023/08/18 13:38:55;;;;;;;1208.00;999.90;;;;;;;;;;4778710;29;20586;-92
2023/08/18 13:41:48;;;;;;;;;;;;;;;;;;4775993;29;20054;-90
2023/08/18 13:56:26;;;;;;;1292.03;999.90;;;;;;;;;;5090098;22;20134;-64
2023/08/18 14:05:06;;;;;;;1191.38;999.90;;;;;;;;;;3935030;26;20414;-63
2023/08/18 14:07:33;;;;;;;1188.53;999.90;;;;;;;;;;5037733;28;20033;-64
2023/08/18 14:10:00;;;;;;;1183.13;999.90;;;;;;;;;;5028427;28;20481;-63
2023/08/18 14:12:27;;;;;;;1198.32;999.90;;;;;;;;;;5026713;28;20505;-63
2023/08/18 14:14:55;;;;;;;1194.07;999.90;;;;;;;;;;5023931;28;20038;-64
2023/08/18 14:17:35;;;;;;;1184.57;999.90;;;;;;;;;;5049865;28;20388;-63
2023/08/18 14:20:07;;;;;;;1180.05;999.90;;;;;;;;;;5038708;28;20498;-64
2023/08/18 14:22:34;;;;;;;1183.50;999.90;;;;;;;;;;5047344;28;20048;-65
2023/08/18 14:25:01;;;;;;;1186.97;999.90;;;;;;;;;;5042786;28;20045;-65
2023/08/18 14:27:27;;;;;;;1193.95;999.90;;;;;;;;;;5042093;28;20083;-65
2023/08/18 14:29:54;;;;;;;1183.20;999.90;;;;;;;;;;5043086;28;20041;-66
2023/08/18 14:32:21;;;;;;;1190.22;999.90;;;;;;;;;;5025282;28;20095;-62
2023/08/18 14:34:51;;;;;;;1184.88;999.90;;;;;;;;;;5043296;28;20037;-62
2023/08/18 14:37:18;;;;;;;1190.18;999.90;;;;;;;;;;5041831;28;20086;-63
2023/08/18 14:39:49;;;;;;;1187.43;999.90;;;;;;;;;;5036357;28;20041;-63
2023/08/18 14:42:16;;;;;;;1182.18;999.90;;;;;;;;;;5042916;28;20041;-65
2023/08/18 14:44:42;;;;;;;1189.60;999.90;;;;;;;;;;5059441;28;20057;-64
2023/08/18 14:47:12;;;;;;;1184.13;999.90;;;;;;;;;;5042167;28;20453;-60
2023/08/18 14:49:38;;;;;;;1189.13;999.90;;;;;;;;;;5038706;28;20124;-62
2023/08/18 14:52:07;;;;;;;1186.15;999.90;;;;;;;;;;5028999;28;20049;-62
2023/08/18 14:54:36;;;;;;;1188.97;999.90;;;;;;;;;;5025424;28;20045;-62
2023/08/18 14:57:08;;;;;;;1175.40;999.90;;;;;;;;;;5044263;28;20046;-62
2023/08/18 14:59:42;;;;;;;1186.55;999.90;;;;;;;;;;5026176;28;20049;-63
2023/08/18 15:02:12;;;;;;;1167.30;999.90;;;;;;;;;;5040541;28;20045;-63
2023/08/18 15:04:42;;;;;;;1177.40;999.90;;;;;;;;;;5042045;28;20077;-63
2023/08/18 15:07:09;;;;;;;1170.72;999.90;;;;;;;;;;5046711;28;20479;-63
2023/08/18 15:09:38;;;;;;;1191.43;999.90;;;;;;;;;;5025787;28;20052;-63
2023/08/18 15:12:07;;;;;;;1177.38;999.90;;;;;;;;;;5041133;28;20196;-63
2023/08/18 15:14:38;;;;;;;1174.60;999.90;;;;;;;;;;5042900;28;20044;-63
2023/08/18 15:17:05;;;;;;;1175.18;999.90;;;;;;;;;;5044464;28;20044;-62
2023/08/18 15:19:32;;;;;;;1173.88;999.90;;;;;;;;;;5049603;28;20094;-63
2023/08/18 15:22:02;;;;;;;1175.78;999.90;;;;;;;;;;5048511;28;20045;-63
2023/08/18 15:24:31;;;;;;;1176.43;999.90;;;;;;;;;;5044247;28;20043;-63
2023/08/18 15:26:58;;;;;;;1172.88;999.90;;;;;;;;;;5040737;28;20518;-63
2023/08/18 15:29:27;;;;;;;1170.05;999.90;;;;;;;;;;5039780;28;20040;-63
2023/08/18 15:31:58;;;;;;;1163.28;999.90;;;;;;;;;;5047154;28;20064;-63
2023/08/18 15:34:27;;;;;;;1173.47;999.90;;;;;;;;;;5041879;28;20045;-62
2023/08/18 15:36:54;;;;;;;1173.03;999.90;;;;;;;;;;5049872;28;20041;-63
2023/08/18 15:39:21;;;;;;;1170.00;999.90;;;;;;;;;;5046374;28;20057;-63
2023/08/18 15:41:51;;;;;;;1164.25;999.90;;;;;;;;;;5042976;28;20124;-63
2023/08/18 15:44:17;;;;;;;1156.85;999.90;;;;;;;;;;5043883;28;20714;-62
2023/08/18 15:46:46;;;;;;;1152.38;999.90;;;;;;;;;;5040071;28;20049;-63
2023/08/18 15:49:13;;;;;;;1151.80;999.90;;;;;;;;;;5043472;28;20138;-66
2023/08/18 15:51:45;;;;;;;1149.95;999.90;;;;;;;;;;5043758;28;20462;-63
2023/08/18 15:54:12;;;;;;;1151.32;999.90;;;;;;;;;;5042732;28;20041;-63
2023/08/18 15:56:39;;;;;;;1134.03;999.90;;;;;;;;;;5042559;28;20082;-61
2023/08/18 15:59:05;;;;;;;1132.95;999.90;;;;;;;;;;5044069;28;20037;-59
2023/08/18 16:01:32;;;;;;;1138.07;999.90;;;;;;;;;;5045340;28;20421;-60
2023/08/18 16:03:59;;;;;;;1129.30;999.90;;;;;;;;;;5041535;28;20071;-59
2023/08/18 16:06:26;;;;;;;1117.43;999.90;;;;;;;;;;5039720;28;20044;-60
2023/08/18 16:50:07;;;;;;;628.70;577.22;;;;;;;;;;6283596;22;20073;-60
2023/08/18 16:52:33;;;;;;;594.10;546.50;;;;;;;;;;6281289;22;20329;-60
2023/08/18 16:55:00;;;;;;;611.92;563.28;;;;;;;;;;6281954;22;20449;-62
2023/08/18 16:57:26;;;;;;;635.72;581.30;;;;;;;;;;6280937;22;20073;-61
2023/08/18 16:59:53;;;;;;;592.15;546.33;;;;;;;;;;6282088;22;20441;-61
2023/08/18 17:02:20;;;;;;;567.40;521.67;;;;;;;;;;6281240;22;20073;-61
2023/08/18 17:04:46;;;;;;;524.83;485.77;;;;;;;;;;6280438;22;20090;-62
2023/08/18 17:07:15;;;;;;;530.92;490.05;;;;;;;;;;6281256;22;20026;-60
2023/08/18 17:09:43;;;;;;;512.25;473.45;;;;;;;;;;6280981;22;20122;-61
2023/08/18 17:12:11;;;;;;;519.05;476.73;;;;;;;;;;6280034;22;20015;-61
2023/08/18 17:14:38;;;;;;;500.80;462.35;;;;;;;;;;6280808;22;20461;-61
2023/08/18 17:17:04;;;;;;;502.55;462.30;;;;;;;;;;6281010;22;20318;-60
2023/08/18 17:19:31;;;;;;;509.45;466.10;;;;;;;;;;6280219;22;20463;-60
2023/08/18 17:21:58;;;;;;;486.58;449.08;;;;;;;;;;6281262;22;20011;-60
2023/08/18 17:24:24;;;;;;;510.88;470.23;;;;;;;;;;6281500;22;20023;-61
2023/08/18 17:26:54;;;;;;;470.20;431.33;;;;;;;;;;6282159;22;20449;-61
2023/08/18 17:29:20;;;;;;;459.35;425.35;;;;;;;;;;6286581;22;20069;-61
2023/08/18 17:31:49;;;;;;;453.25;420.33;;;;;;;;;;6286504;22;20008;-60
2023/08/18 17:34:15;;;;;;;496.17;459.25;;;;;;;;;;6258151;22;20070;-60
2023/08/18 17:36:42;;;;;;;449.08;416.60;;;;;;;;;;6285253;22;20286;-64
2023/08/18 17:39:09;;;;;;;444.45;411.98;;;;;;;;;;6285741;22;20012;-61
2023/08/18 17:41:36;;;;;;;451.90;419.08;;;;;;;;;;6284846;22;20019;-60
2023/08/18 17:44:03;;;;;;;448.70;416.40;;;;;;;;;;6284066;22;20024;-61
2023/08/18 17:46:29;;;;;;;465.48;430.83;;;;;;;;;;6283976;22;20023;-60
2023/08/18 18:07:07;;;;;;;464.02;429.75;;;;;;;;;;6371943;22;20436;-61
2023/08/18 18:09:34;;;;;;;516.88;475.55;;;;;;;;;;6372191;22;20014;-70
2023/08/18 18:12:01;;;;;;;501.35;465.15;;;;;;;;;;6371494;22;20021;-66
2023/08/18 18:14:27;;;;;;;511.75;474.50;;;;;;;;;;6371103;22;20458;-67
2023/08/18 18:16:55;;;;;;;502.02;465.90;;;;;;;;;;6372745;22;20313;-68
2023/08/18 18:19:22;;;;;;;496.88;460.48;;;;;;;;;;6371370;22;20042;-65
2023/08/18 18:21:49;;;;;;;497.50;462.13;;;;;;;;;;6370641;22;20018;-70
2023/08/18 18:24:16;;;;;;;487.40;451.20;;;;;;;;;;6370863;22;20014;-63
2023/08/18 18:26:42;;;;;;;478.70;445.25;;;;;;;;;;6369684;22;20444;-64
2023/08/18 18:29:09;;;;;;;524.08;480.38;;;;;;;;;;6370035;22;20010;-64
2023/08/18 18:31:37;;;;;;;461.77;427.20;;;;;;;;;;6369741;22;20021;-63
2023/08/18 18:34:07;;;;;;;478.25;440.90;;;;;;;;;;6343150;22;20021;-61
2023/08/18 18:36:34;;;;;;;494.17;451.33;;;;;;;;;;6341803;22;20378;-63
2023/08/18 18:39:02;;;;;;;499.25;458.80;;;;;;;;;;6370401;22;20021;-62
2023/08/18 18:41:29;;;;;;;452.85;420.90;;;;;;;;;;6342221;22;20018;-64
2023/08/18 18:43:56;;;;;;;460.58;428.70;;;;;;;;;;6369914;22;20022;-63
2023/08/18 18:46:24;;;;;;;449.65;418.13;;;;;;;;;;6370004;22;20019;-64
2023/08/18 18:48:53;;;;;;;443.05;411.33;;;;;;;;;;6369682;22;20087;-63
2023/08/18 18:51:21;;;;;;;439.08;407.92;;;;;;;;;;6370171;22;20022;-65
2023/08/18 18:53:48;;;;;;;426.58;395.30;;;;;;;;;;6369933;22;20015;-62
2023/08/18 18:56:15;;;;;;;425.48;395.33;;;;;;;;;;6369790;22;20025;-62
2023/08/18 18:58:41;;;;;;;415.95;387.50;;;;;;;;;;6369496;22;20085;-62
2023/08/18 19:01:08;;;;;;;427.75;396.80;;;;;;;;;;6369342;22;20010;-62
2023/08/18 19:03:35;;;;;;;430.88;396.25;;;;;;;;;;6369710;22;20025;-62
2023/08/18 19:06:01;;;;;;;439.80;408.85;;;;;;;;;;6370143;22;20007;-62
2023/08/18 19:08:28;;;;;;;455.92;423.95;;;;;;;;;;6341753;22;20071;-61
2023/08/18 19:10:57;;;;;;;455.65;422.55;;;;;;;;;;6368962;22;20486;-61
2023/08/18 19:13:23;;;;;;;435.17;405.35;;;;;;;;;;6369265;22;20482;-62
2023/08/18 19:15:50;;;;;;;448.45;413.60;;;;;;;;;;6367794;22;20463;-63
2023/08/18 19:18:17;;;;;;;448.60;416.58;;;;;;;;;;6369178;22;20381;-62
2023/08/18 19:20:46;;;;;;;433.58;403.02;;;;;;;;;;6369557;22;20018;-63
2023/08/18 19:23:13;;;;;;;418.73;388.13;;;;;;;;;;6369007;22;20439;-62
2023/08/18 19:25:40;;;;;;;433.25;400.15;;;;;;;;;;6369447;22;20037;-63
2023/08/18 19:28:11;;;;;;;426.50;394.42;;;;;;;;;;6369153;22;20435;-63
2023/08/18 19:30:38;;;;;;;439.90;403.40;;;;;;;;;;6369042;22;20029;-62
2023/08/18 19:33:05;;;;;;;433.42;402.48;;;;;;;;;;6369166;22;20436;-62
2023/08/18 19:35:37;;;;;;;428.65;397.50;;;;;;;;;;6368934;22;20022;-64
2023/08/18 19:38:04;;;;;;;423.58;393.63;;;;;;;;;;6369343;22;20010;-61
2023/08/18 19:40:34;;;;;;;465.77;430.85;;;;;;;;;;6341463;22;20010;-65
2023/08/18 19:43:01;;;;;;;711.38;653.22;;;;;;;;;;6315223;22;20370;-69
2023/08/18 19:45:27;;;;;;;673.40;618.75;;;;;;;;;;6369256;22;20018;-65
2023/08/18 19:47:54;;;;;;;735.63;676.67;;;;;;;;;;6341460;22;20633;-64
2023/08/18 19:50:21;;;;;;;735.30;677.05;;;;;;;;;;6341366;22;20014;-66
2023/08/18 19:52:50;;;;;;;872.05;801.63;;;;;;;;;;6368986;22;20090;-61
2023/08/18 19:55:17;;;;;;;772.10;712.38;;;;;;;;;;6368977;22;20084;-69
2023/08/18 19:57:43;;;;;;;762.33;701.25;;;;;;;;;;6369417;22;20018;-66
2023/08/18 20:00:11;;;;;;;731.53;674.45;;;;;;;;;;6369104;22;20018;-62
2023/08/18 20:02:40;;;;;;;710.33;655.13;;;;;;;;;;6369020;22;20015;-66
2023/08/18 20:05:08;;;;;;;723.58;668.00;;;;;;;;;;6368743;22;20041;-62
2023/08/18 20:07:35;;;;;;;716.55;659.20;;;;;;;;;;6368711;22;20021;-61
2023/08/18 20:10:03;;;;;;;725.22;669.22;;;;;;;;;;6369001;22;20038;-60
2023/08/18 20:12:32;;;;;;;740.40;679.38;;;;;;;;;;6368855;22;20020;-60
2023/08/18 20:15:06;;;;;;;709.45;654.97;;;;;;;;;;6369510;22;20015;-60
2023/08/18 20:17:33;;;;;;;712.70;657.95;;;;;;;;;;6368947;22;20046;-60
2023/08/18 20:20:05;;;;;;;694.85;641.40;;;;;;;;;;6368384;22;20439;-60
2023/08/18 20:22:34;;;;;;;709.40;653.45;;;;;;;;;;6368860;22;20025;-60
2023/08/18 20:25:00;;;;;;;700.60;647.25;;;;;;;;;;6368844;22;20006;-59
2023/08/18 20:27:27;;;;;;;694.60;639.40;;;;;;;;;;6369135;22;20018;-60
2023/08/18 20:29:54;;;;;;;693.88;640.90;;;;;;;;;;6369365;22;20017;-60
2023/08/18 20:32:21;;;;;;;701.78;645.75;;;;;;;;;;6368451;22;20052;-59
2023/08/18 20:34:48;;;;;;;693.30;640.15;;;;;;;;;;6368303;22;20097;-60
2023/08/18 20:37:15;;;;;;;687.60;634.75;;;;;;;;;;6368263;22;20360;-59
2023/08/18 20:39:42;;;;;;;700.25;643.55;;;;;;;;;;6368669;22;20017;-59
2023/08/18 20:42:08;;;;;;;688.65;635.67;;;;;;;;;;6368547;22;20018;-60
2023/08/18 20:44:35;;;;;;;693.15;638.60;;;;;;;;;;6368933;22;20014;-59
2023/08/18 20:47:02;;;;;;;676.33;624.47;;;;;;;;;;6368922;22;20014;-59
2023/08/18 20:49:28;;;;;;;681.10;629.05;;;;;;;;;;6368632;22;20045;-60
2023/08/18 20:51:55;;;;;;;684.47;630.97;;;;;;;;;;6368328;22;20041;-60
2023/08/18 20:54:22;;;;;;;684.17;630.45;;;;;;;;;;6369322;22;20120;-60
2023/08/18 20:56:48;;;;;;;683.45;631.33;;;;;;;;;;6369098;22;20064;-59
2023/08/18 20:59:15;;;;;;;684.53;631.95;;;;;;;;;;6368455;22;20014;-59
2023/08/18 21:01:43;;;;;;;682.33;630.08;;;;;;;;;;6341510;22;20101;-60